Map

Track Data

SID SEASON NUMBER BASIN SUBBASIN NAME ISO_TIME NATURE LAT LON WMO_WIND WMO_PRES WMO_AGENCY TRACK_TYPE DIST2LAND LANDFALL IFLAG USA_AGENCY USA_ATCF_ID USA_LAT USA_LON USA_RECORD USA_STATUS USA_WIND USA_PRES USA_SSHS USA_R34_NE USA_R34_SE USA_R34_SW USA_R34_NW USA_R50_NE USA_R50_SE USA_R50_SW USA_R50_NW USA_R64_NE USA_R64_SE USA_R64_SW USA_R64_NW USA_POCI USA_ROCI USA_RMW USA_EYE TOKYO_LAT TOKYO_LON TOKYO_GRADE TOKYO_WIND TOKYO_PRES TOKYO_R50_DIR TOKYO_R50_LONG TOKYO_R50_SHORT TOKYO_R30_DIR TOKYO_R30_LONG TOKYO_R30_SHORT TOKYO_LAND CMA_LAT CMA_LON CMA_CAT CMA_WIND CMA_PRES HKO_LAT HKO_LON HKO_CAT HKO_WIND HKO_PRES NEWDELHI_LAT NEWDELHI_LON NEWDELHI_GRADE NEWDELHI_WIND NEWDELHI_PRES NEWDELHI_CI NEWDELHI_DP NEWDELHI_POCI REUNION_LAT REUNION_LON REUNION_TYPE REUNION_WIND REUNION_PRES REUNION_TNUM REUNION_CI REUNION_RMW REUNION_R34_NE REUNION_R34_SE REUNION_R34_SW REUNION_R34_NW REUNION_R50_NE REUNION_R50_SE REUNION_R50_SW REUNION_R50_NW REUNION_R64_NE REUNION_R64_SE REUNION_R64_SW REUNION_R64_NW BOM_LAT BOM_LON BOM_TYPE BOM_WIND BOM_PRES BOM_TNUM BOM_CI BOM_RMW BOM_R34_NE BOM_R34_SE BOM_R34_SW BOM_R34_NW BOM_R50_NE BOM_R50_SE BOM_R50_SW BOM_R50_NW BOM_R64_NE BOM_R64_SE BOM_R64_SW BOM_R64_NW BOM_ROCI BOM_POCI BOM_EYE BOM_POS_METHOD BOM_PRES_METHOD NADI_LAT NADI_LON NADI_CAT NADI_WIND NADI_PRES WELLINGTON_LAT WELLINGTON_LON WELLINGTON_WIND WELLINGTON_PRES DS824_LAT DS824_LON DS824_STAGE DS824_WIND DS824_PRES TD9636_LAT TD9636_LON TD9636_STAGE TD9636_WIND TD9636_PRES TD9635_LAT TD9635_LON TD9635_WIND TD9635_PRES TD9635_ROCI NEUMANN_LAT NEUMANN_LON NEUMANN_CLASS NEUMANN_WIND NEUMANN_PRES MLC_LAT MLC_LON MLC_CLASS MLC_WIND MLC_PRES USA_GUST BOM_GUST BOM_GUST_PER REUNION_GUST REUNION_GUST_PER USA_SEAHGT USA_SEARAD_NE USA_SEARAD_SE USA_SEARAD_SW USA_SEARAD_NW STORM_SPEED STORM_DIR
1985197N29296 1985 53 NA NA ANA 1985-07-15 18:00:00 TS 29.4000 -64.2000 30 1011 hurdat_atl main 1237 1236 O_____________ hurdat_atl AL011985 29.4000 -64.2000 TD 30 1011 -1 7 294
1985197N29296 1985 53 NA NA ANA 1985-07-15 21:00:00 TS 29.5427 -64.5598 main 1233 1199 P_____________ AL011985 29.5427 -64.5598 TD 30 1011 -1 7 296
1985197N29296 1985 53 NA NA ANA 1985-07-16 00:00:00 TS 29.7000 -64.9000 30 1011 hurdat_atl main 1199 1163 O_____________ hurdat_atl AL011985 29.7000 -64.9000 TD 30 1011 -1 7 301
1985197N29296 1985 53 NA NA ANA 1985-07-16 03:00:00 TS 29.8849 -65.2077 main 1163 1126 P_____________ AL011985 29.8849 -65.2077 TD 30 1011 -1 7 308
1985197N29296 1985 53 NA NA ANA 1985-07-16 06:00:00 TS 30.1000 -65.5000 30 1011 hurdat_atl main 1126 1090 O_____________ hurdat_atl AL011985 30.1000 -65.5000 TD 30 1011 -1 7 310
1985197N29296 1985 53 NA NA ANA 1985-07-16 09:00:00 TS 30.3275 -65.8076 main 1090 1047 P_____________ AL011985 30.3275 -65.8076 TD 30 1010 -1 7 314
1985197N29296 1985 53 NA NA ANA 1985-07-16 12:00:00 TS 30.6000 -66.1000 30 1010 hurdat_atl main 1047 1004 O_____________ hurdat_atl AL011985 30.6000 -66.1000 TD 30 1010 -1 8 321
1985197N29296 1985 53 NA NA ANA 1985-07-16 15:00:00 TS 30.9199 -66.3652 main 1004 963 P_____________ AL011985 30.9199 -66.3652 TD 32 1009 -1 8 328
1985197N29296 1985 53 NA NA ANA 1985-07-16 18:00:00 TS 31.3000 -66.6000 35 1009 hurdat_atl main 963 923 O_____________ hurdat_atl AL011985 31.3000 -66.6000 TS 35 1009 0 9 334
1985197N29296 1985 53 NA NA ANA 1985-07-16 21:00:00 TS 31.7200 -66.8225 main 923 878 P_____________ AL011985 31.7200 -66.8225 TS 35 1009 0 10 339
1985197N29296 1985 53 NA NA ANA 1985-07-17 00:00:00 TS 32.2000 -67.0000 35 1009 hurdat_atl main 878 843 O_____________ hurdat_atl AL011985 32.2000 -67.0000 TS 35 1009 0 10 346
1985197N29296 1985 53 NA NA ANA 1985-07-17 03:00:00 TS 32.7350 -67.1227 main 843 807 P_____________ AL011985 32.7350 -67.1227 TS 37 1008 0 11 351
1985197N29296 1985 53 NA NA ANA 1985-07-17 06:00:00 TS 33.3000 -67.2000 40 1008 hurdat_atl main 807 779 O_____________ hurdat_atl AL011985 33.3000 -67.2000 TS 40 1008 0 11 354
1985197N29296 1985 53 NA NA ANA 1985-07-17 09:00:00 TS 33.8425 -67.2651 main 779 760 P_____________ AL011985 33.8425 -67.2651 TS 40 1007 0 11 356
1985197N29296 1985 53 NA NA ANA 1985-07-17 12:00:00 TS 34.4000 -67.3000 40 1007 hurdat_atl main 760 748 O_____________ hurdat_atl AL011985 34.4000 -67.3000 TS 40 1007 0 11 357
1985197N29296 1985 53 NA NA ANA 1985-07-17 15:00:00 TS 34.9624 -67.3441 main 746 718 P_____________ AL011985 34.9624 -67.3441 TS 42 1006 0 12 1
1985197N29296 1985 53 NA NA ANA 1985-07-17 18:00:00 TS 35.6000 -67.3000 45 1006 hurdat_atl main 718 650 O_____________ hurdat_atl AL011985 35.6000 -67.3000 TS 45 1006 0 14 8
1985197N29296 1985 53 NA NA ANA 1985-07-17 21:00:00 TS 36.3474 -67.1169 main 650 576 P_____________ AL011985 36.3474 -67.1169 TS 45 1005 0 17 14
1985197N29296 1985 53 NA NA ANA 1985-07-18 00:00:00 TS 37.2000 -66.8000 45 1004 hurdat_atl main 570 504 O_____________ hurdat_atl AL011985 37.2000 -66.8000 TS 45 1004 0 19 17
1985197N29296 1985 53 NA NA ANA 1985-07-18 03:00:00 TS 38.1420 -66.4238 main 504 452 P_____________ AL011985 38.1420 -66.4238 TS 45 1004 0 20 20
1985197N29296 1985 53 NA NA ANA 1985-07-18 06:00:00 TS 39.1000 -65.9000 45 1004 hurdat_atl main 451 400 O_____________ hurdat_atl AL011985 39.1000 -65.9000 TS 45 1004 0 21 28
1985197N29296 1985 53 NA NA ANA 1985-07-18 09:00:00 TS 39.9660 -65.1511 main 389 309 P_____________ AL011985 39.9660 -65.1511 TS 47 1002 0 21 34
1985197N29296 1985 53 NA NA ANA 1985-07-18 12:00:00 TS 40.8000 -64.4000 50 1000 hurdat_atl main 309 232 O_____________ hurdat_atl AL011985 40.8000 -64.4000 TS 50 1000 0 19 26
1985197N29296 1985 53 NA NA ANA 1985-07-18 15:00:00 TS 41.6455 -64.0675 main 232 174 P_____________ AL011985 41.6455 -64.0675 TS 52 998 0 18 22
1985197N29296 1985 53 NA NA ANA 1985-07-18 18:00:00 TS 42.5000 -63.5000 55 996 hurdat_atl main 178 162 O_____________ hurdat_atl AL011985 42.5000 -63.5000 TS 55 996 0 23 41
1985197N29296 1985 53 NA NA ANA 1985-07-18 21:00:00 TS 43.3473 -62.0384 main 168 124 P_____________ AL011985 43.3473 -62.0384 TS 57 996 0 29 54
1985197N29296 1985 53 NA NA ANA 1985-07-19 00:00:00 TS 44.2000 -60.3000 60 996 hurdat_atl main 127 118 O_____________ hurdat_atl AL011985 44.2000 -60.3000 TS 60 996 0 28 52
1985197N29296 1985 53 NA NA ANA 1985-07-19 03:00:00 TS 45.0734 -58.9345 main 121 120 P_____________ AL011985 45.0734 -58.9345 TS 57 996 0 26 47
1985197N29296 1985 53 NA NA ANA 1985-07-19 06:00:00 ET 46.0000 -57.6000 55 996 hurdat_atl main 164 18 O_____________ hurdat_atl AL011985 46.0000 -57.6000 EX 55 996 -4 27 46
1985197N29296 1985 53 NA NA ANA 1985-07-19 09:00:00 ET 46.9884 -56.1175 main 7 0 P_____________ AL011985 46.9884 -56.1175 EX 52 996 -4 29 47
1985197N29296 1985 53 NA NA ANA 1985-07-19 12:00:00 ET 48.0000 -54.5000 50 996 hurdat_atl main 0 O_____________ hurdat_atl AL011985 48.0000 -54.5000 EX 50 996 -4 30 47

About IBTrACS Database

This database is a web-friendly format of International Best Track Archive for Climate Stewardship (IBTrACS), a global best track data archive curated by NOAA dating back to 1842.

Updated: 2021-12-06